createdAt,value
2023-10-19T00:00:04.309Z,0.00
2023-10-19T00:01:04.445Z,0.00
2023-10-19T00:02:04.392Z,0.00
2023-10-19T00:03:04.370Z,0.00
2023-10-19T00:04:04.277Z,0.00
2023-10-19T00:05:04.378Z,0.00
2023-10-19T00:06:04.243Z,0.00
2023-10-19T00:07:04.264Z,0.00
2023-10-19T00:08:04.214Z,0.00
2023-10-19T00:09:04.251Z,0.00
2023-10-19T00:10:04.170Z,0.00
2023-10-19T00:11:04.372Z,0.00
2023-10-19T00:12:04.168Z,0.00
2023-10-19T00:13:04.140Z,0.00
2023-10-19T00:14:04.124Z,0.00
2023-10-19T00:15:04.123Z,0.00
2023-10-19T00:16:04.146Z,0.00
2023-10-19T00:17:04.141Z,0.00
2023-10-19T00:18:04.111Z,0.00
2023-10-19T00:19:04.070Z,0.00
2023-10-19T00:20:04.033Z,0.00
2023-10-19T00:21:04.034Z,0.00
2023-10-19T00:22:04.030Z,0.00
2023-10-19T00:23:04.012Z,0.00
2023-10-19T00:24:03.997Z,0.00
2023-10-19T00:25:04.000Z,0.00
2023-10-19T00:26:04.002Z,0.00
2023-10-19T00:27:03.957Z,0.00
2023-10-19T00:28:03.948Z,0.00
2023-10-19T00:29:04.060Z,0.00
2023-10-19T00:30:03.922Z,0.00
2023-10-19T00:31:03.937Z,0.00
2023-10-19T00:32:04.019Z,0.00
2023-10-19T00:33:03.899Z,0.00
2023-10-19T00:34:03.867Z,0.00
2023-10-19T00:35:03.873Z,0.00
2023-10-19T00:36:03.860Z,0.00
2023-10-19T00:37:03.819Z,0.00
2023-10-19T00:38:03.858Z,0.00
2023-10-19T00:39:03.808Z,0.00
2023-10-19T00:40:03.823Z,0.00
2023-10-19T00:41:03.764Z,0.00
2023-10-19T00:42:03.769Z,0.00
2023-10-19T00:43:03.776Z,0.00
2023-10-19T00:44:03.754Z,0.00
2023-10-19T00:45:03.731Z,0.00
2023-10-19T00:46:03.728Z,0.00
2023-10-19T00:47:03.733Z,0.00
2023-10-19T00:48:03.686Z,0.00
2023-10-19T00:49:03.719Z,0.00
2023-10-19T00:50:03.651Z,0.00
2023-10-19T00:51:03.649Z,0.00
2023-10-19T00:52:03.652Z,0.00
2023-10-19T00:53:03.630Z,0.00
2023-10-19T00:54:03.600Z,0.00
2023-10-19T00:55:03.604Z,0.00
2023-10-19T00:56:03.573Z,0.00
2023-10-19T00:57:03.613Z,0.00
2023-10-19T00:58:03.555Z,0.00
2023-10-19T00:59:03.543Z,0.00
2023-10-19T01:00:03.512Z,0.00
2023-10-19T01:01:03.544Z,0.00
2023-10-19T01:02:03.556Z,0.00
2023-10-19T01:03:03.550Z,0.00
2023-10-19T01:04:03.459Z,0.00
2023-10-19T01:05:03.465Z,0.00
2023-10-19T01:06:03.441Z,0.00
2023-10-19T01:07:03.441Z,0.00
2023-10-19T01:08:03.440Z,0.00
2023-10-19T01:09:03.405Z,0.00
2023-10-19T01:10:03.394Z,0.00
2023-10-19T01:11:03.360Z,0.00
2023-10-19T01:12:03.377Z,0.00
2023-10-19T01:13:03.360Z,0.00
2023-10-19T01:14:03.340Z,0.00
2023-10-19T01:15:03.311Z,0.00
2023-10-19T01:16:03.361Z,0.00
2023-10-19T01:17:03.344Z,0.00
2023-10-19T01:18:03.299Z,0.00
2023-10-19T01:19:03.253Z,0.00
2023-10-19T01:20:03.260Z,0.00
2023-10-19T01:21:03.261Z,0.00
2023-10-19T01:22:03.255Z,0.00
2023-10-19T01:23:03.209Z,0.00
2023-10-19T01:24:03.209Z,0.00
2023-10-19T01:25:03.185Z,0.00
2023-10-19T01:26:03.195Z,0.00
2023-10-19T01:27:03.164Z,0.00
2023-10-19T01:28:03.161Z,0.00
2023-10-19T01:29:03.142Z,0.00
2023-10-19T01:30:03.149Z,0.00
2023-10-19T01:31:03.125Z,0.00
2023-10-19T01:32:03.105Z,0.00
2023-10-19T01:33:03.112Z,0.00
2023-10-19T01:34:03.062Z,0.00
2023-10-19T01:35:03.077Z,0.00
2023-10-19T01:36:03.049Z,0.00
2023-10-19T01:37:03.020Z,0.00
2023-10-19T01:38:03.029Z,0.00
2023-10-19T01:39:03.013Z,0.00
2023-10-19T01:40:03.005Z,0.00
2023-10-19T01:41:02.956Z,0.00
2023-10-19T01:42:02.996Z,0.00
2023-10-19T01:43:03.027Z,0.00
2023-10-19T01:44:03.002Z,0.00
2023-10-19T01:45:02.924Z,0.00
2023-10-19T01:46:02.908Z,0.00
2023-10-19T01:47:02.939Z,0.00
2023-10-19T01:48:02.954Z,0.00
2023-10-19T01:49:02.870Z,0.00
2023-10-19T01:50:02.845Z,0.00
2023-10-19T01:51:02.837Z,0.00
2023-10-19T01:52:02.832Z,0.00
2023-10-19T01:53:02.817Z,0.00
2023-10-19T01:54:02.827Z,0.00
2023-10-19T01:55:02.805Z,0.00
2023-10-19T01:56:02.779Z,0.00
2023-10-19T01:57:03.022Z,0.00
2023-10-19T01:58:02.754Z,0.00
2023-10-19T01:59:02.794Z,0.00
2023-10-19T02:00:02.751Z,0.00
2023-10-19T02:01:02.728Z,0.00
2023-10-19T02:02:02.764Z,0.00
2023-10-19T02:03:02.765Z,0.00
2023-10-19T02:04:02.836Z,0.00
2023-10-19T02:05:02.667Z,0.00
2023-10-19T02:06:02.642Z,0.00
2023-10-19T02:07:02.661Z,0.00
2023-10-19T02:08:02.642Z,0.00
2023-10-19T02:09:02.623Z,0.00
2023-10-19T02:10:02.590Z,0.00
2023-10-19T02:11:02.582Z,0.00
2023-10-19T02:12:02.575Z,0.00
2023-10-19T02:13:02.549Z,0.00
2023-10-19T02:14:02.545Z,0.00
2023-10-19T02:15:02.517Z,0.00
2023-10-19T02:16:02.548Z,0.00
2023-10-19T02:17:02.614Z,0.00
2023-10-19T02:18:02.524Z,0.00
2023-10-19T02:19:02.483Z,0.00
2023-10-19T02:20:02.477Z,0.00
2023-10-19T02:21:02.464Z,0.00
2023-10-19T02:22:02.433Z,0.00
2023-10-19T02:23:02.415Z,0.00
2023-10-19T02:24:02.413Z,0.00
2023-10-19T02:25:02.397Z,0.00
2023-10-19T02:26:02.402Z,0.00
2023-10-19T02:27:02.710Z,0.00
2023-10-19T02:28:02.345Z,0.00
2023-10-19T02:29:02.440Z,0.00
2023-10-19T02:30:02.322Z,0.00
2023-10-19T02:31:02.357Z,0.00
2023-10-19T02:32:02.359Z,0.00
2023-10-19T02:33:02.358Z,0.00
2023-10-19T02:34:02.293Z,0.00
2023-10-19T02:35:02.353Z,0.00
2023-10-19T02:36:02.266Z,0.00
2023-10-19T02:37:02.237Z,0.00
2023-10-19T02:38:02.226Z,0.00
2023-10-19T02:39:02.217Z,0.00
2023-10-19T02:40:02.210Z,0.00
2023-10-19T02:41:02.186Z,0.00
2023-10-19T02:42:02.201Z,0.00
2023-10-19T02:43:02.195Z,0.00
2023-10-19T02:44:02.266Z,0.00
2023-10-19T02:45:02.163Z,0.00
2023-10-19T02:46:02.130Z,0.00
2023-10-19T02:47:02.268Z,0.00
2023-10-19T02:48:02.207Z,0.00
2023-10-19T02:49:02.153Z,0.00
2023-10-19T02:50:02.132Z,0.00
2023-10-19T02:51:02.853Z,0.00
2023-10-19T02:52:02.155Z,0.00
2023-10-19T02:53:02.084Z,0.00
2023-10-19T02:54:02.083Z,0.00
2023-10-19T02:55:01.997Z,0.00
2023-10-19T02:56:02.248Z,0.00
2023-10-19T02:57:02.146Z,0.00
2023-10-19T02:58:01.987Z,0.00
2023-10-19T02:59:02.185Z,0.00
2023-10-19T03:00:01.957Z,0.00
2023-10-19T03:01:02.062Z,0.00
2023-10-19T03:02:02.249Z,0.00
2023-10-19T03:03:01.987Z,0.00
2023-10-19T03:04:01.943Z,0.00
2023-10-19T03:05:01.924Z,0.00
2023-10-19T03:06:01.870Z,0.00
2023-10-19T03:07:01.845Z,0.00
2023-10-19T03:08:01.862Z,0.00
2023-10-19T03:09:01.832Z,0.00
2023-10-19T03:10:01.835Z,0.00
2023-10-19T03:11:01.819Z,0.00
2023-10-19T03:12:01.813Z,0.00
2023-10-19T03:13:01.777Z,0.00
2023-10-19T03:14:01.782Z,0.00
2023-10-19T03:15:01.817Z,0.00
2023-10-19T03:16:01.744Z,0.00
2023-10-19T03:17:02.168Z,0.00
2023-10-19T03:18:01.720Z,0.00
2023-10-19T03:19:01.714Z,0.00
2023-10-19T03:20:01.776Z,0.00
2023-10-19T03:21:01.684Z,0.00
2023-10-19T03:22:01.742Z,0.00
2023-10-19T03:23:01.698Z,0.00
2023-10-19T03:24:01.633Z,0.00
2023-10-19T03:25:01.765Z,0.00
2023-10-19T03:26:01.629Z,0.00
2023-10-19T03:27:01.581Z,0.00
2023-10-19T03:28:01.574Z,0.00
2023-10-19T03:29:01.579Z,0.00
2023-10-19T03:30:01.543Z,0.00
2023-10-19T03:31:01.573Z,0.00
2023-10-19T03:32:01.610Z,0.00
2023-10-19T03:33:01.559Z,0.00
2023-10-19T03:34:01.509Z,0.00
2023-10-19T03:35:01.632Z,0.00
2023-10-19T03:36:01.486Z,0.00
2023-10-19T03:37:01.450Z,0.00
2023-10-19T03:38:01.430Z,0.00
2023-10-19T03:39:01.396Z,0.00
2023-10-19T03:40:01.602Z,0.00
2023-10-19T03:41:01.387Z,0.00
2023-10-19T03:42:01.431Z,0.00
2023-10-19T03:43:01.355Z,0.00
2023-10-19T03:44:01.355Z,0.00
2023-10-19T03:45:01.333Z,0.00
2023-10-19T03:46:01.338Z,0.00
2023-10-19T03:47:01.531Z,0.00
2023-10-19T03:48:01.304Z,0.00
2023-10-19T03:49:01.285Z,0.00
2023-10-19T03:50:01.281Z,0.00
2023-10-19T03:51:01.299Z,0.00
2023-10-19T03:52:01.236Z,0.00
2023-10-19T03:53:01.315Z,0.00
2023-10-19T03:54:01.219Z,0.00
2023-10-19T03:55:01.202Z,0.00
2023-10-19T03:56:01.230Z,0.00
2023-10-19T03:57:01.167Z,0.00
2023-10-19T03:58:01.235Z,0.00
2023-10-19T03:59:01.154Z,0.00
2023-10-19T04:00:01.184Z,0.00
2023-10-19T04:01:01.135Z,0.00
2023-10-19T04:02:01.192Z,0.00
2023-10-19T04:03:01.216Z,0.00
2023-10-19T04:04:02.022Z,0.00
2023-10-19T04:05:01.109Z,0.00
2023-10-19T04:06:01.071Z,0.00
2023-10-19T04:07:01.055Z,0.00
2023-10-19T04:08:01.097Z,0.00
2023-10-19T04:09:01.140Z,0.00
2023-10-19T04:10:01.194Z,0.00
2023-10-19T04:11:01.057Z,0.00
2023-10-19T04:12:01.086Z,0.00
2023-10-19T04:13:00.983Z,0.00
2023-10-19T04:14:00.984Z,0.00
2023-10-19T04:15:00.948Z,0.00
2023-10-19T04:16:00.974Z,0.00
2023-10-19T04:17:01.009Z,0.00
2023-10-19T04:18:00.962Z,0.00
2023-10-19T04:19:00.935Z,0.00
2023-10-19T04:20:00.892Z,0.00
2023-10-19T04:21:00.870Z,0.00
2023-10-19T04:22:00.887Z,0.00
2023-10-19T04:23:00.875Z,0.00
2023-10-19T04:24:00.933Z,0.00
2023-10-19T04:25:00.814Z,0.00
2023-10-19T04:26:00.830Z,0.00
2023-10-19T04:27:00.791Z,0.00
2023-10-19T04:28:00.844Z,0.00
2023-10-19T04:29:00.811Z,0.00
2023-10-19T04:30:00.755Z,0.00
2023-10-19T04:31:00.890Z,0.00
2023-10-19T04:32:00.791Z,0.00
2023-10-19T04:33:00.737Z,0.00
2023-10-19T04:34:00.707Z,0.00
2023-10-19T04:35:00.736Z,0.00
2023-10-19T04:36:00.833Z,0.00
2023-10-19T04:37:00.658Z,0.00
2023-10-19T04:38:00.721Z,0.00
2023-10-19T04:39:00.627Z,0.00
2023-10-19T04:40:00.654Z,0.00
2023-10-19T04:41:00.662Z,0.00
2023-10-19T04:42:00.613Z,0.00
2023-10-19T04:43:00.694Z,0.00
2023-10-19T04:44:00.598Z,0.00
2023-10-19T04:45:00.574Z,0.00
2023-10-19T04:46:00.588Z,0.00
2023-10-19T04:47:00.608Z,0.00
2023-10-19T04:48:00.608Z,0.00
2023-10-19T04:49:00.500Z,0.00
2023-10-19T04:50:00.630Z,0.00
2023-10-19T04:51:00.483Z,0.00
2023-10-19T04:52:00.453Z,0.00
2023-10-19T04:53:00.519Z,0.00
2023-10-19T04:54:00.444Z,0.00
2023-10-19T04:55:00.432Z,0.00
2023-10-19T04:56:00.435Z,0.00
2023-10-19T04:57:00.394Z,0.00
2023-10-19T04:58:00.384Z,0.00
2023-10-19T04:59:00.397Z,0.00
2023-10-19T05:00:00.403Z,0.00
2023-10-19T05:01:00.357Z,0.00
2023-10-19T05:02:01.059Z,0.00
2023-10-19T05:03:00.382Z,0.00
2023-10-19T05:04:00.349Z,0.00
2023-10-19T05:05:00.423Z,0.00
2023-10-19T05:06:00.334Z,0.00
2023-10-19T05:07:00.254Z,0.00
2023-10-19T05:08:00.304Z,0.00
2023-10-19T05:09:00.232Z,0.00
2023-10-19T05:10:00.274Z,0.00
2023-10-19T05:11:00.323Z,0.00
2023-10-19T05:12:00.227Z,0.00
2023-10-19T05:13:00.206Z,0.00
2023-10-19T05:14:00.256Z,0.00
2023-10-19T05:15:00.187Z,0.00
2023-10-19T05:16:00.383Z,0.00
2023-10-19T05:17:00.191Z,0.00
2023-10-19T05:18:00.288Z,0.00
2023-10-19T05:19:00.091Z,0.00
2023-10-19T05:20:00.141Z,0.00
2023-10-19T05:21:00.098Z,0.00
2023-10-19T05:22:00.056Z,0.00
2023-10-19T05:23:00.080Z,0.00
2023-10-19T05:24:00.042Z,0.00
2023-10-19T05:25:00.007Z,0.00
2023-10-19T05:26:00.084Z,0.00
2023-10-19T05:27:00.002Z,0.00
2023-10-19T05:27:59.991Z,0.00
2023-10-19T05:28:59.985Z,0.00
2023-10-19T05:29:59.965Z,0.00
2023-10-19T05:30:59.934Z,0.00
2023-10-19T05:32:00.059Z,0.00
2023-10-19T05:32:59.933Z,0.00
2023-10-19T05:33:59.899Z,0.00
2023-10-19T05:35:01.211Z,0.00
2023-10-19T05:35:59.892Z,4.00
2023-10-19T05:37:00.010Z,4.00
2023-10-19T05:37:59.899Z,4.00
2023-10-19T05:38:59.836Z,4.00
2023-10-19T05:39:59.850Z,0.00
2023-10-19T05:40:59.855Z,0.00
2023-10-19T05:41:59.817Z,4.00
2023-10-19T05:42:59.780Z,4.00
2023-10-19T05:43:59.819Z,4.00
2023-10-19T05:44:59.771Z,4.00
2023-10-19T05:45:59.810Z,4.00
2023-10-19T05:47:00.504Z,4.00
2023-10-19T05:47:59.732Z,8.00
2023-10-19T05:48:59.719Z,8.00
2023-10-19T05:49:59.755Z,8.00
2023-10-19T05:50:59.693Z,12.00
2023-10-19T05:51:59.673Z,8.00
2023-10-19T05:52:59.686Z,8.00
2023-10-19T05:53:59.640Z,8.00
2023-10-19T05:54:59.656Z,8.00
2023-10-19T05:55:59.670Z,12.00
2023-10-19T05:56:59.786Z,8.00
2023-10-19T05:57:59.583Z,12.00
2023-10-19T05:58:59.632Z,8.00
2023-10-19T05:59:59.579Z,12.00
2023-10-19T06:00:59.553Z,12.00
2023-10-19T06:01:59.586Z,12.00
2023-10-19T06:02:59.579Z,16.00
2023-10-19T06:03:59.551Z,16.00
2023-10-19T06:04:59.533Z,20.00
2023-10-19T06:05:59.511Z,20.00
2023-10-19T06:06:59.470Z,20.00
2023-10-19T06:07:59.467Z,24.00
2023-10-19T06:08:59.489Z,24.00
2023-10-19T06:09:59.432Z,24.00
2023-10-19T06:10:59.460Z,24.00
2023-10-19T06:11:59.384Z,24.00
2023-10-19T06:12:59.400Z,20.00
2023-10-19T06:13:59.379Z,24.00
2023-10-19T06:14:59.366Z,28.00
2023-10-19T06:15:59.406Z,28.00
2023-10-19T06:16:59.467Z,28.00
2023-10-19T06:17:59.466Z,32.00
2023-10-19T06:18:59.414Z,36.00
2023-10-19T06:19:59.298Z,36.00
2023-10-19T06:20:59.283Z,36.00
2023-10-19T06:21:59.257Z,44.00
2023-10-19T06:22:59.293Z,48.00
2023-10-19T06:23:59.239Z,52.00
2023-10-19T06:24:59.234Z,48.00
2023-10-19T06:25:59.271Z,48.00
2023-10-19T06:26:59.201Z,48.00
2023-10-19T06:27:59.194Z,56.00
2023-10-19T06:28:59.233Z,52.00
2023-10-19T06:29:59.146Z,60.00
2023-10-19T06:30:59.137Z,56.00
2023-10-19T06:31:59.228Z,60.00
2023-10-19T06:32:59.189Z,56.00
2023-10-19T06:33:59.212Z,56.00
2023-10-19T06:34:59.135Z,56.00
2023-10-19T06:35:59.069Z,56.00
2023-10-19T06:36:59.099Z,56.00
2023-10-19T06:37:59.101Z,56.00
2023-10-19T06:38:59.035Z,60.00
2023-10-19T06:39:59.023Z,60.00
2023-10-19T06:40:59.078Z,60.00
2023-10-19T06:41:59.012Z,60.00
2023-10-19T06:42:59.002Z,60.00
2023-10-19T06:43:59.004Z,60.00
2023-10-19T06:44:58.958Z,64.00
2023-10-19T06:45:58.984Z,64.00
2023-10-19T06:46:58.969Z,64.00
2023-10-19T06:47:58.937Z,68.00
2023-10-19T06:48:58.908Z,76.00
2023-10-19T06:49:58.936Z,88.00
2023-10-19T06:50:58.898Z,100.00
2023-10-19T06:51:58.842Z,104.00
2023-10-19T06:52:58.884Z,104.00
2023-10-19T06:53:58.878Z,112.00
2023-10-19T06:54:58.846Z,116.00
2023-10-19T06:55:58.837Z,116.00
2023-10-19T06:56:58.793Z,112.00
2023-10-19T06:57:58.769Z,108.00
2023-10-19T06:58:58.789Z,104.00
2023-10-19T06:59:58.766Z,116.00
2023-10-19T07:00:58.742Z,128.00
2023-10-19T07:01:58.758Z,132.00
2023-10-19T07:02:58.733Z,144.00
2023-10-19T07:03:58.753Z,152.00
2023-10-19T07:04:58.726Z,152.00
2023-10-19T07:05:58.683Z,152.00
2023-10-19T07:06:58.663Z,164.00
2023-10-19T07:07:58.695Z,168.00
2023-10-19T07:08:58.653Z,176.00
2023-10-19T07:09:58.633Z,180.00
2023-10-19T07:10:58.641Z,184.00
2023-10-19T07:11:58.585Z,188.00
2023-10-19T07:12:58.594Z,176.00
2023-10-19T07:13:58.643Z,168.00
2023-10-19T07:14:58.555Z,164.00
2023-10-19T07:15:58.571Z,172.00
2023-10-19T07:16:58.637Z,180.00
2023-10-19T07:17:58.535Z,184.00
2023-10-19T07:18:58.513Z,180.00
2023-10-19T07:19:58.510Z,176.00
2023-10-19T07:20:58.462Z,168.00
2023-10-19T07:21:58.481Z,164.00
2023-10-19T07:22:58.537Z,156.00
2023-10-19T07:23:58.447Z,160.00
2023-10-19T07:24:58.442Z,168.00
2023-10-19T07:25:58.425Z,176.00
2023-10-19T07:26:58.432Z,184.00
2023-10-19T07:27:58.391Z,196.00
2023-10-19T07:28:58.440Z,212.00
2023-10-19T07:29:58.375Z,228.00
2023-10-19T07:30:58.351Z,248.00
2023-10-19T07:31:58.495Z,260.00
2023-10-19T07:32:58.366Z,292.00
2023-10-19T07:33:58.320Z,332.00
2023-10-19T07:34:58.301Z,360.00
2023-10-19T07:35:58.274Z,376.00
2023-10-19T07:36:58.272Z,376.00
2023-10-19T07:37:58.404Z,372.00
2023-10-19T07:38:58.247Z,384.00
2023-10-19T07:39:58.226Z,392.00
2023-10-19T07:40:58.925Z,384.00
2023-10-19T07:41:58.209Z,364.00
2023-10-19T07:42:58.189Z,348.00
2023-10-19T07:43:58.214Z,328.00
2023-10-19T07:44:58.172Z,288.00
2023-10-19T07:45:58.174Z,272.00
2023-10-19T07:46:58.178Z,288.00
2023-10-19T07:47:58.139Z,300.00
2023-10-19T07:48:58.132Z,316.00
2023-10-19T07:49:58.133Z,308.00
2023-10-19T07:50:58.102Z,292.00
2023-10-19T07:51:59.126Z,292.00
2023-10-19T07:52:58.086Z,308.00
2023-10-19T07:53:58.089Z,336.00
2023-10-19T07:54:58.024Z,396.00
2023-10-19T07:55:58.068Z,436.00
2023-10-19T07:56:57.998Z,448.00
2023-10-19T07:57:57.977Z,456.00
2023-10-19T07:58:58.100Z,512.00
2023-10-19T07:59:57.967Z,584.00
2023-10-19T08:00:58.214Z,600.00
2023-10-19T08:01:57.979Z,528.00
2023-10-19T08:02:57.966Z,460.00
2023-10-19T08:03:57.981Z,440.00
2023-10-19T08:04:57.920Z,436.00
2023-10-19T08:05:57.865Z,468.00
2023-10-19T08:06:57.853Z,548.00
2023-10-19T08:07:57.913Z,624.00
2023-10-19T08:08:57.846Z,612.00
2023-10-19T08:09:57.819Z,580.00
2023-10-19T08:10:57.932Z,528.00
2023-10-19T08:11:58.474Z,488.00
2023-10-19T08:12:57.787Z,496.00
2023-10-19T08:13:57.789Z,492.00
2023-10-19T08:14:57.745Z,524.00
2023-10-19T08:15:57.762Z,564.00
2023-10-19T08:16:57.775Z,576.00
2023-10-19T08:17:57.750Z,548.00
2023-10-19T08:18:57.796Z,516.00
2023-10-19T08:19:57.718Z,524.00
2023-10-19T08:20:57.759Z,544.00
2023-10-19T08:21:57.622Z,576.00
2023-10-19T08:22:57.697Z,620.00
2023-10-19T08:23:57.627Z,688.00
2023-10-19T08:24:57.606Z,776.00
2023-10-19T08:25:57.947Z,888.00
2023-10-19T08:26:57.591Z,1028.00
2023-10-19T08:27:57.584Z,1092.00
2023-10-19T08:28:57.594Z,1124.00
2023-10-19T08:29:57.533Z,1276.00
2023-10-19T08:30:57.976Z,1464.00
2023-10-19T08:31:57.592Z,1700.00
2023-10-19T08:32:57.547Z,1820.00
2023-10-19T08:33:57.538Z,1796.00
2023-10-19T08:34:57.569Z,2052.00
2023-10-19T08:35:57.523Z,2312.00
2023-10-19T08:36:57.457Z,2520.00
2023-10-19T08:37:57.471Z,3344.00
2023-10-19T08:38:57.434Z,3724.00
2023-10-19T08:39:57.395Z,2936.00
2023-10-19T08:40:58.116Z,2408.00
2023-10-19T08:41:57.385Z,2124.00
2023-10-19T08:42:57.364Z,1872.00
2023-10-19T08:43:57.421Z,1808.00
2023-10-19T08:44:57.340Z,1664.00
2023-10-19T08:45:57.393Z,1464.00
2023-10-19T08:46:58.754Z,1500.00
2023-10-19T08:47:57.432Z,1520.00
2023-10-19T08:48:57.289Z,1464.00
2023-10-19T08:49:57.288Z,1388.00
2023-10-19T08:50:57.326Z,1560.00
2023-10-19T08:51:57.215Z,1860.00
2023-10-19T08:52:57.313Z,2096.00
2023-10-19T08:53:57.203Z,2352.00
2023-10-19T08:54:57.200Z,3344.00
2023-10-19T08:55:57.218Z,4464.00
2023-10-19T08:56:57.155Z,4116.00
2023-10-19T08:57:57.146Z,4604.00
2023-10-19T08:58:57.233Z,4388.00
2023-10-19T08:59:57.117Z,4840.00
2023-10-19T09:00:57.265Z,5548.00
2023-10-19T09:01:57.093Z,5820.00
2023-10-19T09:02:57.112Z,5800.00
2023-10-19T09:03:57.117Z,6136.00
2023-10-19T09:04:57.197Z,6472.00
2023-10-19T09:05:57.044Z,4636.00
2023-10-19T09:06:57.053Z,3484.00
2023-10-19T09:07:57.065Z,3836.00
2023-10-19T09:08:56.999Z,3204.00
2023-10-19T09:09:57.016Z,2888.00
2023-10-19T09:10:57.076Z,2828.00
2023-10-19T09:11:56.968Z,2416.00
2023-10-19T09:12:56.958Z,2396.00
2023-10-19T09:13:57.008Z,2416.00
2023-10-19T09:14:56.934Z,2124.00
2023-10-19T09:15:57.873Z,1736.00
2023-10-19T09:16:56.992Z,1472.00
2023-10-19T09:17:56.925Z,1416.00
2023-10-19T09:18:56.883Z,1448.00
2023-10-19T09:19:56.920Z,1388.00
2023-10-19T09:20:56.873Z,1388.00
2023-10-19T09:21:56.842Z,1380.00
2023-10-19T09:22:56.883Z,1452.00
2023-10-19T09:23:56.828Z,1548.00
2023-10-19T09:24:56.826Z,1748.00
2023-10-19T09:25:56.866Z,2080.00
2023-10-19T09:26:56.761Z,2524.00
2023-10-19T09:27:56.809Z,2776.00
2023-10-19T09:28:56.815Z,2884.00
2023-10-19T09:29:56.723Z,2984.00
2023-10-19T09:30:56.719Z,2980.00
2023-10-19T09:31:56.731Z,3180.00
2023-10-19T09:32:56.795Z,3184.00
2023-10-19T09:33:56.689Z,3200.00
2023-10-19T09:34:56.683Z,3620.00
2023-10-19T09:35:56.636Z,3476.00
2023-10-19T09:36:56.628Z,3252.00
2023-10-19T09:37:56.649Z,3152.00
2023-10-19T09:38:56.599Z,3276.00
2023-10-19T09:39:56.596Z,3152.00
2023-10-19T09:40:56.689Z,2836.00
2023-10-19T09:41:56.574Z,2880.00
2023-10-19T09:42:56.719Z,3468.00
2023-10-19T09:43:56.610Z,3568.00
2023-10-19T09:44:56.578Z,3288.00
2023-10-19T09:45:56.516Z,3788.00
2023-10-19T09:46:56.572Z,4560.00
2023-10-19T09:47:56.574Z,4032.00
2023-10-19T09:48:56.472Z,4768.00
2023-10-19T09:49:56.483Z,4512.00
2023-10-19T09:50:56.453Z,4636.00
2023-10-19T09:52:57.426Z,4032.00
2023-10-19T09:53:56.399Z,3888.00
2023-10-19T09:54:56.378Z,3744.00
2023-10-19T09:55:56.464Z,3356.00
2023-10-19T09:56:56.367Z,3248.00
2023-10-19T09:57:56.369Z,3488.00
2023-10-19T09:58:56.380Z,3800.00
2023-10-19T09:59:56.337Z,3728.00
2023-10-19T10:00:56.382Z,3780.00
2023-10-19T10:01:56.388Z,3992.00
2023-10-19T10:02:56.322Z,4368.00
2023-10-19T10:03:56.289Z,4768.00
2023-10-19T10:04:56.298Z,4320.00
2023-10-19T10:05:56.488Z,4760.00
2023-10-19T10:06:56.270Z,4416.00
2023-10-19T10:07:56.260Z,3588.00
2023-10-19T10:08:56.215Z,2736.00
2023-10-19T10:09:56.225Z,2244.00
2023-10-19T10:10:56.263Z,2004.00
2023-10-19T10:11:56.188Z,1972.00
2023-10-19T10:12:56.163Z,2020.00
2023-10-19T10:13:56.248Z,2032.00
2023-10-19T10:14:56.235Z,2084.00
2023-10-19T10:15:56.137Z,2240.00
2023-10-19T10:16:56.163Z,2344.00
2023-10-19T10:17:56.168Z,2496.00
2023-10-19T10:18:56.085Z,2400.00
2023-10-19T10:19:56.210Z,2332.00
2023-10-19T10:20:56.119Z,2352.00
2023-10-19T10:21:56.080Z,2236.00
2023-10-19T10:22:56.057Z,1832.00
2023-10-19T10:23:56.090Z,1520.00
2023-10-19T10:24:56.028Z,1296.00
2023-10-19T10:25:56.085Z,1164.00
2023-10-19T10:26:56.019Z,1080.00
2023-10-19T10:27:55.991Z,1028.00
2023-10-19T10:28:56.008Z,976.00
2023-10-19T10:29:55.967Z,944.00
2023-10-19T10:30:56.008Z,912.00
2023-10-19T10:31:55.975Z,896.00
2023-10-19T10:32:55.956Z,896.00
2023-10-19T10:33:56.148Z,924.00
2023-10-19T10:34:55.938Z,984.00
2023-10-19T10:35:55.870Z,1032.00
2023-10-19T10:36:55.860Z,1144.00
2023-10-19T10:37:55.900Z,1408.00
2023-10-19T10:38:55.833Z,1964.00
2023-10-19T10:39:55.796Z,2932.00
2023-10-19T10:40:55.843Z,3568.00
2023-10-19T10:41:55.776Z,3580.00
2023-10-19T10:42:55.774Z,3924.00
2023-10-19T10:43:55.776Z,3720.00
2023-10-19T10:44:55.726Z,3608.00
2023-10-19T10:45:55.728Z,3680.00
2023-10-19T10:46:55.786Z,4156.00
2023-10-19T10:47:55.750Z,4160.00
2023-10-19T10:48:55.696Z,3560.00
2023-10-19T10:49:55.772Z,3680.00
2023-10-19T10:50:56.912Z,3744.00
2023-10-19T10:51:55.659Z,3404.00
2023-10-19T10:52:55.676Z,3568.00
2023-10-19T10:53:55.628Z,3496.00
2023-10-19T10:54:55.604Z,3384.00
2023-10-19T10:55:55.765Z,3296.00
2023-10-19T10:56:55.572Z,3240.00
2023-10-19T10:57:55.576Z,3228.00
2023-10-19T10:58:55.626Z,3156.00
2023-10-19T10:59:55.564Z,3044.00
2023-10-19T11:00:55.559Z,2844.00
2023-10-19T11:01:55.625Z,3000.00
2023-10-19T11:02:55.523Z,3024.00
2023-10-19T11:03:56.988Z,2972.00
2023-10-19T11:04:55.541Z,3084.00
2023-10-19T11:05:55.638Z,2912.00
2023-10-19T11:06:55.459Z,2576.00
2023-10-19T11:07:55.454Z,2452.00
2023-10-19T11:08:55.447Z,2412.00
2023-10-19T11:09:57.431Z,3000.00
2023-10-19T11:10:55.449Z,2900.00
2023-10-19T11:11:55.391Z,2628.00
2023-10-19T11:12:55.362Z,2352.00
2023-10-19T11:13:55.459Z,2572.00
2023-10-19T11:14:55.351Z,2476.00
2023-10-19T11:15:58.679Z,2420.00
2023-10-19T11:16:55.421Z,2444.00
2023-10-19T11:17:55.363Z,2424.00
2023-10-19T11:18:55.295Z,2444.00
2023-10-19T11:19:55.338Z,2560.00
2023-10-19T11:20:55.285Z,2948.00
2023-10-19T11:21:58.376Z,2420.00
2023-10-19T11:22:56.291Z,2356.00
2023-10-19T11:23:55.252Z,2324.00
2023-10-19T11:24:55.211Z,2284.00
2023-10-19T11:25:55.260Z,2304.00
2023-10-19T11:26:55.181Z,2336.00
2023-10-19T11:27:57.014Z,2396.00
2023-10-19T11:28:55.229Z,2460.00
2023-10-19T11:29:55.160Z,2480.00
2023-10-19T11:30:55.140Z,2276.00
2023-10-19T11:31:55.146Z,2164.00
2023-10-19T11:32:55.194Z,2072.00
2023-10-19T11:33:55.109Z,1976.00
2023-10-19T11:34:55.156Z,1856.00
2023-10-19T11:35:55.147Z,1724.00
2023-10-19T11:36:55.071Z,1648.00
2023-10-19T11:37:55.069Z,1640.00
2023-10-19T11:38:55.070Z,1672.00
2023-10-19T11:39:55.015Z,1708.00
2023-10-19T11:40:55.034Z,1724.00
2023-10-19T11:41:54.983Z,1760.00
2023-10-19T11:42:54.968Z,1780.00
2023-10-19T11:43:57.210Z,1972.00
2023-10-19T11:44:54.928Z,1908.00
2023-10-19T11:45:54.955Z,1940.00
2023-10-19T11:46:55.015Z,1984.00
2023-10-19T11:47:54.927Z,2024.00
2023-10-19T11:48:54.887Z,2052.00
2023-10-19T11:49:54.910Z,2048.00
2023-10-19T11:50:54.866Z,2016.00
2023-10-19T11:51:54.841Z,2004.00
2023-10-19T11:52:54.982Z,2012.00
2023-10-19T11:53:54.815Z,2000.00
2023-10-19T11:54:54.811Z,1948.00
2023-10-19T11:55:54.824Z,1868.00
2023-10-19T11:56:54.783Z,1828.00
2023-10-19T11:57:54.768Z,1828.00
2023-10-19T11:58:54.774Z,1864.00
2023-10-19T11:59:57.306Z,1880.00
2023-10-19T12:00:54.722Z,1852.00
2023-10-19T12:01:54.814Z,1824.00
2023-10-19T12:02:54.876Z,1856.00
2023-10-19T12:03:54.691Z,1828.00
2023-10-19T12:04:54.686Z,1788.00
2023-10-19T12:05:57.241Z,1708.00
2023-10-19T12:06:54.660Z,1628.00
2023-10-19T12:07:54.689Z,1536.00
2023-10-19T12:08:54.615Z,1484.00
2023-10-19T12:09:54.612Z,1532.00
2023-10-19T12:10:54.606Z,1568.00
2023-10-19T12:11:54.637Z,1496.00
2023-10-19T12:13:02.028Z,1360.00
2023-10-19T12:13:55.640Z,1216.00
2023-10-19T12:14:54.562Z,1156.00
2023-10-19T12:15:54.560Z,1160.00
2023-10-19T12:17:54.674Z,1160.00
2023-10-19T12:18:54.498Z,1140.00
2023-10-19T12:19:54.509Z,1184.00
2023-10-19T12:20:54.474Z,1348.00
2023-10-19T12:21:54.433Z,1516.00
2023-10-19T12:22:54.506Z,1620.00
2023-10-19T12:23:54.427Z,1672.00
2023-10-19T12:24:54.408Z,1704.00
2023-10-19T12:25:57.697Z,1744.00
2023-10-19T12:26:54.377Z,1780.00
2023-10-19T12:27:54.373Z,1784.00
2023-10-19T12:28:54.347Z,1736.00
2023-10-19T12:29:54.349Z,1684.00
2023-10-19T12:30:54.415Z,1660.00
2023-10-19T12:31:54.366Z,1648.00
2023-10-19T12:32:54.354Z,1636.00
2023-10-19T12:33:54.279Z,1576.00
2023-10-19T12:34:54.310Z,1532.00
2023-10-19T12:35:54.247Z,1476.00
2023-10-19T12:36:54.227Z,1400.00
2023-10-19T12:37:54.292Z,1356.00
2023-10-19T12:38:57.798Z,1344.00
2023-10-19T12:39:54.187Z,1348.00
2023-10-19T12:40:54.208Z,1364.00
2023-10-19T12:41:54.156Z,1368.00
2023-10-19T12:42:54.168Z,1392.00
2023-10-19T12:43:54.471Z,1404.00
2023-10-19T12:44:54.101Z,1384.00
2023-10-19T12:45:54.147Z,1316.00